Thunder radar more information blitzortung!


Rain radar more information rain snow radar


Visit our other weather sites:

Template documentation
and downloads

And another site



No particular awareness of the weather is required.    There are no Weather-warnings

Weather Underground History page Text

Daily Summary for December 14, 2017 Units:  Metric    English   Both
« Previous Day
Next Day »
Daily Weekly Monthly Yearly Custom
  Current: High: Low: Average:
Temperature: 9.6 °C 9.6 °C 7.0 °C 8.1 °C
Dew Point: 2.2 °C 2.4 °C -1.2 °C 0.4 °C
Humidity: 60 % 61 % 56 % 58 %
Wind Speed: 3.7 km/h 9.3 km/h 0.0 km/h 3.3 km/h
Wind Gust: 3.7 km/h 9.7 km/h - -
Wind:WNW - - ESE
Pressure: 1015.8 hPa 1017.8 hPa 1014.8 hPa -
Precipitation: 0.0 mm      
Historical Graphs
 
 
Tabular Data for December 14, 2017
Time Temperature Dew Point Pressure Wind Wind Speed Wind Gust Humidity Rainfall Rate (Hourly)
00:01 7.0 °C -1.2 °C 1017.8 hPa WSW 3.7 km/h 3.7 km/h 56 % 0.0 mm
00:05 8.0 °C -0.3 °C 1015.8 hPa Calm   3.2 km/h 56 % 0.0 mm
00:06 7.8 °C -0.4 °C 1017.8 hPa West 5.6 km/h 5.6 km/h 56 % 0.0 mm
00:15 8.0 °C -0.3 °C 1015.8 hPa NNE 1.6 km/h 4.8 km/h 56 % 0.0 mm
00:25 8.1 °C -0.2 °C 1015.8 hPa North 4.8 km/h 6.4 km/h 56 % 0.0 mm
00:35 8.2 °C -0.1 °C 1015.8 hPa NNW 3.2 km/h 3.2 km/h 56 % 0.0 mm
00:45 7.9 °C -0.1 °C 1015.8 hPa North 3.2 km/h 4.8 km/h 57 % 0.0 mm
00:55 7.9 °C -0.1 °C 1015.8 hPa NE 3.2 km/h 6.4 km/h 57 % 0.0 mm
01:05 7.8 °C -0.2 °C 1015.8 hPa NE 1.6 km/h 6.4 km/h 57 % 0.0 mm
01:15 7.9 °C -0.1 °C 1015.8 hPa NE 4.8 km/h 4.8 km/h 57 % 0.0 mm
01:25 7.8 °C -0.2 °C 1015.8 hPa NE 3.2 km/h 6.4 km/h 57 % 0.0 mm
01:35 7.8 °C -0.2 °C 1015.8 hPa NNE 4.8 km/h 6.4 km/h 57 % 0.0 mm
01:45 7.6 °C -0.4 °C 1015.8 hPa North 8.0 km/h 9.7 km/h 57 % 0.0 mm
01:55 7.6 °C -0.4 °C 1014.8 hPa NNE 1.6 km/h 8.0 km/h 57 % 0.0 mm
02:05 7.6 °C -0.2 °C 1015.8 hPa NNE 1.6 km/h 8.0 km/h 58 % 0.0 mm
02:15 7.5 °C -0.2 °C 1015.8 hPa East 3.2 km/h 3.2 km/h 58 % 0.0 mm
02:25 7.4 °C -0.3 °C 1014.8 hPa East 1.6 km/h 6.4 km/h 58 % 0.0 mm
02:35 7.4 °C -0.3 °C 1015.8 hPa NNE 1.6 km/h 4.8 km/h 58 % 0.0 mm
02:45 7.3 °C -0.4 °C 1015.8 hPa SW 3.2 km/h 4.8 km/h 58 % 0.0 mm
02:55 7.5 °C 0.0 °C 1014.8 hPa WSW 3.2 km/h 9.7 km/h 59 % 0.0 mm
03:05 7.6 °C 0.1 °C 1015.8 hPa NNW 3.2 km/h 3.2 km/h 59 % 0.0 mm
03:15 7.7 °C 0.2 °C 1015.8 hPa Calm   4.8 km/h 59 % 0.0 mm
03:25 7.9 °C 0.4 °C 1015.8 hPa NNE 1.6 km/h 3.2 km/h 59 % 0.0 mm
03:35 8.0 °C 0.4 °C 1015.8 hPa Calm   4.8 km/h 59 % 0.0 mm
03:45 8.0 °C 0.7 °C 1015.8 hPa NNE 1.6 km/h 4.8 km/h 60 % 0.0 mm
03:55 8.2 °C 0.7 °C 1015.8 hPa NE 4.8 km/h 4.8 km/h 59 % 0.0 mm
04:05 8.4 °C 0.8 °C 1015.8 hPa NE 3.2 km/h 4.8 km/h 59 % 0.0 mm
04:15 8.5 °C 1.2 °C 1015.8 hPa NE 1.6 km/h 3.2 km/h 60 % 0.0 mm
04:25 8.7 °C 1.3 °C 1015.8 hPa ESE 3.2 km/h 6.4 km/h 60 % 0.0 mm
10:29 8.9 °C 1.6 °C 1015.8 hPa SSE 3.7 km/h 3.7 km/h 60 % 0.0 mm
10:30 8.9 °C 1.6 °C 1015.8 hPa SSW 3.7 km/h 3.7 km/h 60 % 0.0 mm
10:31 9.0 °C 1.7 °C 1015.8 hPa WSW 3.7 km/h 3.7 km/h 60 % 0.0 mm
10:36 9.3 °C 1.9 °C 1015.8 hPa North 7.4 km/h 7.4 km/h 60 % 0.0 mm
10:41 9.6 °C 2.4 °C 1015.8 hPa WNW 9.3 km/h 9.3 km/h 61 % 0.0 mm
10:43 9.6 °C 2.2 °C 1015.8 hPa West 4.2 km/h 4.2 km/h 60 % 0.0 mm
10:44 9.6 °C 2.2 °C 1015.8 hPa WNW 3.7 km/h 3.7 km/h 60 % 0.0 mm
Meteo Sesrovires
Compliments of Weather Underground - 2.75 mb

Script developed by  Jim McMurry - jmcmurry@mwt.net Adapted for the template by  Wim van der Kuil - Leuven-Template.eu

You find our weather info also at:

Weather Underground

AWEKAS